sensor_id;sensor_type;location;lat;lon;timestamp;pressure;altitude;pressure_sealevel;temperature;humidity
54872;BME280;43914;57.680;11.982;2023-02-28T00:01:14;102243.05;;;0.61;100.00
54872;BME280;43914;57.680;11.982;2023-02-28T00:03:40;102247.14;;;0.60;100.00
54872;BME280;43914;57.680;11.982;2023-02-28T00:06:07;102246.92;;;0.61;100.00
54872;BME280;43914;57.680;11.982;2023-02-28T00:08:34;102241.76;;;0.59;100.00
54872;BME280;43914;57.680;11.982;2023-02-28T00:11:07;102237.83;;;0.56;100.00
54872;BME280;43914;57.680;11.982;2023-02-28T00:13:34;102240.73;;;0.54;100.00
54872;BME280;43914;57.680;11.982;2023-02-28T00:16:10;102237.25;;;0.50;100.00
54872;BME280;43914;57.680;11.982;2023-02-28T00:18:36;102235.77;;;0.48;100.00
54872;BME280;43914;57.680;11.982;2023-02-28T00:21:02;102234.48;;;0.46;100.00
54872;BME280;43914;57.680;11.982;2023-02-28T00:23:28;102234.41;;;0.44;100.00
54872;BME280;43914;57.680;11.982;2023-02-28T00:25:54;102242.99;;;0.41;100.00
54872;BME280;43914;57.680;11.982;2023-02-28T00:28:20;102240.98;;;0.39;100.00
54872;BME280;43914;57.680;11.982;2023-02-28T00:30:45;102245.02;;;0.37;100.00
54872;BME280;43914;57.680;11.982;2023-02-28T00:33:11;102244.30;;;0.33;100.00
54872;BME280;43914;57.680;11.982;2023-02-28T00:35:37;102239.72;;;0.30;100.00
54872;BME280;43914;57.680;11.982;2023-02-28T00:38:02;102241.24;;;0.27;100.00
54872;BME280;43914;57.680;11.982;2023-02-28T00:40:28;102237.98;;;0.26;100.00
54872;BME280;43914;57.680;11.982;2023-02-28T00:42:54;102235.19;;;0.25;100.00
54872;BME280;43914;57.680;11.982;2023-02-28T00:45:20;102237.48;;;0.29;100.00
54872;BME280;43914;57.680;11.982;2023-02-28T00:47:45;102241.43;;;0.27;100.00
54872;BME280;43914;57.680;11.982;2023-02-28T00:50:16;102239.95;;;0.25;100.00
54872;BME280;43914;57.680;11.982;2023-02-28T00:52:42;102236.54;;;0.23;100.00
54872;BME280;43914;57.680;11.982;2023-02-28T00:55:08;102232.08;;;0.24;100.00
54872;BME280;43914;57.680;11.982;2023-02-28T00:57:34;102231.04;;;0.27;100.00
54872;BME280;43914;57.680;11.982;2023-02-28T01:00:01;102227.22;;;0.23;100.00
54872;BME280;43914;57.680;11.982;2023-02-28T01:02:27;102232.31;;;0.23;100.00
54872;BME280;43914;57.680;11.982;2023-02-28T01:04:52;102232.11;;;0.20;100.00
54872;BME280;43914;57.680;11.982;2023-02-28T01:07:19;102230.17;;;0.17;100.00
54872;BME280;43914;57.680;11.982;2023-02-28T01:09:44;102230.12;;;0.14;100.00
54872;BME280;43914;57.680;11.982;2023-02-28T01:12:10;102229.73;;;0.15;100.00
54872;BME280;43914;57.680;11.982;2023-02-28T01:14:35;102226.19;;;0.16;100.00
54872;BME280;43914;57.680;11.982;2023-02-28T01:17:01;102226.45;;;0.17;100.00
54872;BME280;43914;57.680;11.982;2023-02-28T01:19:26;102228.92;;;0.17;100.00
54872;BME280;43914;57.680;11.982;2023-02-28T01:21:52;102226.92;;;0.14;100.00
54872;BME280;43914;57.680;11.982;2023-02-28T01:24:18;102225.50;;;0.15;100.00
54872;BME280;43914;57.680;11.982;2023-02-28T01:26:44;102221.39;;;0.16;100.00
54872;BME280;43914;57.680;11.982;2023-02-28T01:29:09;102220.23;;;0.18;100.00
54872;BME280;43914;57.680;11.982;2023-02-28T01:31:35;102218.02;;;0.20;100.00
54872;BME280;43914;57.680;11.982;2023-02-28T01:34:01;102216.10;;;0.20;100.00
54872;BME280;43914;57.680;11.982;2023-02-28T01:36:27;102214.71;;;0.22;100.00
54872;BME280;43914;57.680;11.982;2023-02-28T01:38:53;102222.27;;;0.26;100.00
54872;BME280;43914;57.680;11.982;2023-02-28T01:41:21;102218.35;;;0.27;100.00
54872;BME280;43914;57.680;11.982;2023-02-28T01:46:13;102218.52;;;0.34;100.00
54872;BME280;43914;57.680;11.982;2023-02-28T01:48:49;102213.17;;;0.35;100.00
54872;BME280;43914;57.680;11.982;2023-02-28T01:51:29;102207.96;;;0.34;100.00
54872;BME280;43914;57.680;11.982;2023-02-28T01:54:03;102205.92;;;0.33;100.00
54872;BME280;43914;57.680;11.982;2023-02-28T01:56:33;102208.13;;;0.31;100.00
54872;BME280;43914;57.680;11.982;2023-02-28T01:59:02;102204.36;;;0.28;100.00
54872;BME280;43914;57.680;11.982;2023-02-28T02:03:57;102197.08;;;0.30;100.00
54872;BME280;43914;57.680;11.982;2023-02-28T02:06:40;102197.89;;;0.31;100.00
54872;BME280;43914;57.680;11.982;2023-02-28T02:09:07;102192.95;;;0.31;100.00
54872;BME280;43914;57.680;11.982;2023-02-28T02:11:34;102196.39;;;0.33;100.00
54872;BME280;43914;57.680;11.982;2023-02-28T02:14:31;102193.70;;;0.34;100.00
54872;BME280;43914;57.680;11.982;2023-02-28T02:17:10;102191.21;;;0.34;100.00
54872;BME280;43914;57.680;11.982;2023-02-28T02:36:57;102183.36;;;0.22;100.00
54872;BME280;43914;57.680;11.982;2023-02-28T02:39:53;102174.84;;;0.23;100.00
54872;BME280;43914;57.680;11.982;2023-02-28T02:42:32;102168.85;;;0.23;100.00
54872;BME280;43914;57.680;11.982;2023-02-28T02:45:09;102170.16;;;0.22;100.00
54872;BME280;43914;57.680;11.982;2023-02-28T02:47:37;102172.23;;;0.19;100.00
54872;BME280;43914;57.680;11.982;2023-02-28T02:50:08;102171.15;;;0.20;100.00
54872;BME280;43914;57.680;11.982;2023-02-28T02:52:44;102170.00;;;0.18;100.00
54872;BME280;43914;57.680;11.982;2023-02-28T02:55:13;102168.55;;;0.16;100.00
54872;BME280;43914;57.680;11.982;2023-02-28T02:57:52;102164.23;;;0.10;100.00
54872;BME280;43914;57.680;11.982;2023-02-28T03:00:23;102161.60;;;0.07;100.00
54872;BME280;43914;57.680;11.982;2023-02-28T03:02:52;102160.14;;;0.04;100.00
54872;BME280;43914;57.680;11.982;2023-02-28T03:05:24;102157.79;;;0.02;100.00
54872;BME280;43914;57.680;11.982;2023-02-28T03:07:51;102161.14;;;0.02;100.00
54872;BME280;43914;57.680;11.982;2023-02-28T03:10:33;102160.88;;;0.00;100.00
54872;BME280;43914;57.680;11.982;2023-02-28T03:24:34;102170.34;;;-0.12;100.00
54872;BME280;43914;57.680;11.982;2023-02-28T03:30:32;102173.48;;;-0.26;100.00
54872;BME280;43914;57.680;11.982;2023-02-28T03:33:06;102174.20;;;-0.33;100.00
54872;BME280;43914;57.680;11.982;2023-02-28T03:35:47;102171.83;;;-0.39;100.00
54872;BME280;43914;57.680;11.982;2023-02-28T03:40:48;102170.00;;;-0.48;100.00
54872;BME280;43914;57.680;11.982;2023-02-28T03:43:21;102168.47;;;-0.53;100.00
54872;BME280;43914;57.680;11.982;2023-02-28T03:45:50;102165.40;;;-0.55;100.00
54872;BME280;43914;57.680;11.982;2023-02-28T03:48:23;102166.12;;;-0.55;100.00
54872;BME280;43914;57.680;11.982;2023-02-28T03:50:53;102164.05;;;-0.52;100.00
54872;BME280;43914;57.680;11.982;2023-02-28T03:53:27;102160.01;;;-0.49;100.00
54872;BME280;43914;57.680;11.982;2023-02-28T03:55:59;102157.55;;;-0.39;100.00
54872;BME280;43914;57.680;11.982;2023-02-28T04:01:26;102164.95;;;-0.07;100.00
54872;BME280;43914;57.680;11.982;2023-02-28T04:03:53;102173.60;;;0.03;100.00
54872;BME280;43914;57.680;11.982;2023-02-28T04:06:21;102173.34;;;-0.06;100.00
54872;BME280;43914;57.680;11.982;2023-02-28T04:08:48;102176.44;;;-0.15;100.00
54872;BME280;43914;57.680;11.982;2023-02-28T04:11:18;102176.85;;;-0.27;100.00
54872;BME280;43914;57.680;11.982;2023-02-28T04:13:45;102175.30;;;-0.34;100.00
54872;BME280;43914;57.680;11.982;2023-02-28T04:16:10;102171.73;;;-0.40;100.00
54872;BME280;43914;57.680;11.982;2023-02-28T04:18:39;102174.00;;;-0.43;100.00
54872;BME280;43914;57.680;11.982;2023-02-28T04:21:06;102171.54;;;-0.47;100.00
54872;BME280;43914;57.680;11.982;2023-02-28T04:23:32;102170.68;;;-0.48;100.00
54872;BME280;43914;57.680;11.982;2023-02-28T04:25:58;102167.00;;;-0.52;100.00
54872;BME280;43914;57.680;11.982;2023-02-28T04:28:24;102167.15;;;-0.54;100.00
54872;BME280;43914;57.680;11.982;2023-02-28T04:31:02;102164.66;;;-0.58;100.00
54872;BME280;43914;57.680;11.982;2023-02-28T04:33:29;102168.55;;;-0.62;100.00
54872;BME280;43914;57.680;11.982;2023-02-28T04:36:22;102171.29;;;-0.67;100.00
54872;BME280;43914;57.680;11.982;2023-02-28T04:38:49;102165.23;;;-0.69;100.00
54872;BME280;43914;57.680;11.982;2023-02-28T04:41:15;102168.35;;;-0.68;100.00
54872;BME280;43914;57.680;11.982;2023-02-28T04:43:41;102172.08;;;-0.69;100.00
54872;BME280;43914;57.680;11.982;2023-02-28T04:46:07;102175.09;;;-0.69;100.00
54872;BME280;43914;57.680;11.982;2023-02-28T04:48:35;102167.61;;;-0.71;100.00
54872;BME280;43914;57.680;11.982;2023-02-28T04:51:13;102170.84;;;-0.73;100.00
54872;BME280;43914;57.680;11.982;2023-02-28T04:53:40;102166.09;;;-0.73;100.00
54872;BME280;43914;57.680;11.982;2023-02-28T04:56:07;102163.11;;;-0.73;100.00
54872;BME280;43914;57.680;11.982;2023-02-28T04:58:33;102163.17;;;-0.71;100.00
54872;BME280;43914;57.680;11.982;2023-02-28T05:03:44;102155.30;;;-0.75;100.00
54872;BME280;43914;57.680;11.982;2023-02-28T05:06:11;102161.54;;;-0.73;100.00
54872;BME280;43914;57.680;11.982;2023-02-28T05:08:37;102163.42;;;-0.76;100.00
54872;BME280;43914;57.680;11.982;2023-02-28T05:11:06;102166.86;;;-0.78;100.00
54872;BME280;43914;57.680;11.982;2023-02-28T05:13:36;102168.44;;;-0.81;100.00
54872;BME280;43914;57.680;11.982;2023-02-28T05:16:01;102166.80;;;-0.83;100.00
54872;BME280;43914;57.680;11.982;2023-02-28T05:18:27;102161.88;;;-0.88;100.00
54872;BME280;43914;57.680;11.982;2023-02-28T05:20:52;102165.39;;;-0.91;100.00
54872;BME280;43914;57.680;11.982;2023-02-28T05:23:19;102164.36;;;-0.92;100.00
54872;BME280;43914;57.680;11.982;2023-02-28T05:25:46;102164.85;;;-0.91;100.00
54872;BME280;43914;57.680;11.982;2023-02-28T05:28:12;102163.48;;;-0.88;100.00
54872;BME280;43914;57.680;11.982;2023-02-28T05:30:37;102161.91;;;-0.84;100.00
54872;BME280;43914;57.680;11.982;2023-02-28T05:33:03;102161.06;;;-0.81;100.00
54872;BME280;43914;57.680;11.982;2023-02-28T05:35:28;102161.72;;;-0.81;100.00
54872;BME280;43914;57.680;11.982;2023-02-28T05:37:54;102157.62;;;-0.80;100.00
54872;BME280;43914;57.680;11.982;2023-02-28T05:40:19;102161.73;;;-0.77;100.00
54872;BME280;43914;57.680;11.982;2023-02-28T05:42:46;102151.36;;;-0.74;100.00
54872;BME280;43914;57.680;11.982;2023-02-28T05:45:12;102148.77;;;-0.71;100.00
54872;BME280;43914;57.680;11.982;2023-02-28T05:47:38;102142.58;;;-0.67;100.00
54872;BME280;43914;57.680;11.982;2023-02-28T05:50:04;102138.27;;;-0.65;100.00
54872;BME280;43914;57.680;11.982;2023-02-28T05:52:30;102137.56;;;-0.62;100.00
54872;BME280;43914;57.680;11.982;2023-02-28T05:54:56;102139.09;;;-0.61;100.00
54872;BME280;43914;57.680;11.982;2023-02-28T05:57:22;102132.96;;;-0.61;100.00
54872;BME280;43914;57.680;11.982;2023-02-28T05:59:48;102132.42;;;-0.57;100.00
54872;BME280;43914;57.680;11.982;2023-02-28T06:02:16;102130.42;;;-0.56;100.00
54872;BME280;43914;57.680;11.982;2023-02-28T06:04:42;102132.71;;;-0.52;100.00
54872;BME280;43914;57.680;11.982;2023-02-28T06:07:08;102133.80;;;-0.50;100.00
54872;BME280;43914;57.680;11.982;2023-02-28T06:09:34;102133.02;;;-0.48;100.00
54872;BME280;43914;57.680;11.982;2023-02-28T06:12:01;102134.60;;;-0.44;100.00
54872;BME280;43914;57.680;11.982;2023-02-28T06:14:29;102130.05;;;-0.41;100.00
54872;BME280;43914;57.680;11.982;2023-02-28T06:16:56;102131.48;;;-0.38;100.00
54872;BME280;43914;57.680;11.982;2023-02-28T06:19:22;102135.80;;;-0.33;100.00
54872;BME280;43914;57.680;11.982;2023-02-28T06:21:51;102140.10;;;-0.31;100.00
54872;BME280;43914;57.680;11.982;2023-02-28T06:24:22;102133.29;;;-0.29;100.00
54872;BME280;43914;57.680;11.982;2023-02-28T06:26:48;102133.65;;;-0.25;100.00
54872;BME280;43914;57.680;11.982;2023-02-28T06:29:14;102135.81;;;-0.23;100.00
54872;BME280;43914;57.680;11.982;2023-02-28T06:31:44;102144.27;;;-0.20;100.00
54872;BME280;43914;57.680;11.982;2023-02-28T06:34:11;102143.46;;;-0.18;100.00
54872;BME280;43914;57.680;11.982;2023-02-28T06:36:38;102150.20;;;-0.15;100.00
54872;BME280;43914;57.680;11.982;2023-02-28T06:39:05;102146.86;;;-0.12;100.00
54872;BME280;43914;57.680;11.982;2023-02-28T06:41:31;102155.11;;;-0.04;100.00
54872;BME280;43914;57.680;11.982;2023-02-28T06:43:59;102162.43;;;-0.06;100.00
54872;BME280;43914;57.680;11.982;2023-02-28T06:46:24;102172.65;;;-0.10;100.00
54872;BME280;43914;57.680;11.982;2023-02-28T06:48:50;102179.88;;;-0.17;100.00
54872;BME280;43914;57.680;11.982;2023-02-28T06:51:18;102184.20;;;-0.25;100.00
54872;BME280;43914;57.680;11.982;2023-02-28T06:53:46;102192.49;;;-0.30;100.00
54872;BME280;43914;57.680;11.982;2023-02-28T06:56:13;102192.42;;;-0.32;100.00
54872;BME280;43914;57.680;11.982;2023-02-28T06:58:40;102188.44;;;-0.29;100.00
54872;BME280;43914;57.680;11.982;2023-02-28T07:01:06;102190.45;;;-0.27;100.00
54872;BME280;43914;57.680;11.982;2023-02-28T07:03:35;102193.95;;;-0.23;100.00
54872;BME280;43914;57.680;11.982;2023-02-28T07:06:00;102198.86;;;-0.19;100.00
54872;BME280;43914;57.680;11.982;2023-02-28T07:08:27;102196.90;;;-0.15;100.00
54872;BME280;43914;57.680;11.982;2023-02-28T07:10:56;102204.34;;;-0.09;100.00
54872;BME280;43914;57.680;11.982;2023-02-28T07:13:22;102202.04;;;-0.02;100.00
54872;BME280;43914;57.680;11.982;2023-02-28T07:15:56;102202.54;;;0.06;100.00
54872;BME280;43914;57.680;11.982;2023-02-28T07:18:22;102202.39;;;0.12;100.00
54872;BME280;43914;57.680;11.982;2023-02-28T07:20:47;102213.17;;;0.18;100.00
54872;BME280;43914;57.680;11.982;2023-02-28T07:23:13;102211.55;;;0.16;100.00
54872;BME280;43914;57.680;11.982;2023-02-28T07:25:38;102220.42;;;0.21;100.00
54872;BME280;43914;57.680;11.982;2023-02-28T07:28:04;102223.23;;;0.25;100.00
54872;BME280;43914;57.680;11.982;2023-02-28T07:30:30;102224.39;;;0.23;100.00
54872;BME280;43914;57.680;11.982;2023-02-28T07:32:55;102221.87;;;0.21;100.00
54872;BME280;43914;57.680;11.982;2023-02-28T07:35:22;102218.15;;;0.28;100.00
54872;BME280;43914;57.680;11.982;2023-02-28T07:37:48;102222.48;;;0.36;100.00
54872;BME280;43914;57.680;11.982;2023-02-28T07:40:13;102220.88;;;0.43;100.00
54872;BME280;43914;57.680;11.982;2023-02-28T07:42:42;102214.02;;;0.49;100.00
54872;BME280;43914;57.680;11.982;2023-02-28T07:45:09;102212.42;;;0.53;100.00
54872;BME280;43914;57.680;11.982;2023-02-28T07:47:37;102214.01;;;0.53;100.00
54872;BME280;43914;57.680;11.982;2023-02-28T07:50:09;102212.45;;;0.53;100.00
54872;BME280;43914;57.680;11.982;2023-02-28T07:52:36;102215.95;;;0.53;100.00
54872;BME280;43914;57.680;11.982;2023-02-28T07:55:02;102224.48;;;0.52;100.00
54872;BME280;43914;57.680;11.982;2023-02-28T07:57:27;102230.99;;;0.45;100.00
54872;BME280;43914;57.680;11.982;2023-02-28T07:59:53;102228.06;;;0.40;100.00
54872;BME280;43914;57.680;11.982;2023-02-28T08:02:18;102222.56;;;0.38;100.00
54872;BME280;43914;57.680;11.982;2023-02-28T08:04:44;102224.23;;;0.36;100.00
54872;BME280;43914;57.680;11.982;2023-02-28T08:07:12;102226.83;;;0.37;100.00
54872;BME280;43914;57.680;11.982;2023-02-28T08:09:39;102221.70;;;0.41;100.00
54872;BME280;43914;57.680;11.982;2023-02-28T08:12:05;102228.59;;;0.48;100.00
54872;BME280;43914;57.680;11.982;2023-02-28T08:14:32;102232.05;;;0.55;100.00
54872;BME280;43914;57.680;11.982;2023-02-28T08:16:58;102230.55;;;0.64;100.00
54872;BME280;43914;57.680;11.982;2023-02-28T08:19:23;102224.98;;;0.69;100.00
54872;BME280;43914;57.680;11.982;2023-02-28T08:21:49;102225.24;;;0.77;100.00
54872;BME280;43914;57.680;11.982;2023-02-28T08:24:14;102229.48;;;0.84;100.00
54872;BME280;43914;57.680;11.982;2023-02-28T08:26:40;102229.33;;;0.90;100.00
54872;BME280;43914;57.680;11.982;2023-02-28T08:29:05;102226.83;;;0.94;100.00
54872;BME280;43914;57.680;11.982;2023-02-28T08:31:31;102226.08;;;1.11;100.00
54872;BME280;43914;57.680;11.982;2023-02-28T08:33:56;102222.75;;;1.36;100.00
54872;BME280;43914;57.680;11.982;2023-02-28T08:36:24;102216.59;;;1.57;100.00
54872;BME280;43914;57.680;11.982;2023-02-28T08:38:50;102220.92;;;1.71;100.00
54872;BME280;43914;57.680;11.982;2023-02-28T08:41:16;102220.50;;;1.75;100.00
54872;BME280;43914;57.680;11.982;2023-02-28T08:43:41;102216.89;;;1.77;100.00
54872;BME280;43914;57.680;11.982;2023-02-28T08:46:13;102223.10;;;1.76;100.00
54872;BME280;43914;57.680;11.982;2023-02-28T08:48:40;102230.06;;;1.72;100.00
54872;BME280;43914;57.680;11.982;2023-02-28T08:51:08;102234.77;;;1.70;100.00
54872;BME280;43914;57.680;11.982;2023-02-28T08:53:38;102231.78;;;1.66;100.00
54872;BME280;43914;57.680;11.982;2023-02-28T08:56:07;102230.02;;;1.66;100.00
54872;BME280;43914;57.680;11.982;2023-02-28T08:58:33;102233.11;;;1.68;100.00
54872;BME280;43914;57.680;11.982;2023-02-28T09:01:00;102233.75;;;1.69;100.00
54872;BME280;43914;57.680;11.982;2023-02-28T09:03:26;102233.27;;;1.71;100.00
54872;BME280;43914;57.680;11.982;2023-02-28T09:05:56;102236.13;;;1.74;100.00
54872;BME280;43914;57.680;11.982;2023-02-28T09:08:23;102240.67;;;1.75;100.00
54872;BME280;43914;57.680;11.982;2023-02-28T09:10:48;102239.44;;;1.78;100.00
54872;BME280;43914;57.680;11.982;2023-02-28T09:13:14;102246.98;;;1.82;100.00
54872;BME280;43914;57.680;11.982;2023-02-28T09:15:39;102249.31;;;1.84;100.00
54872;BME280;43914;57.680;11.982;2023-02-28T09:18:05;102253.81;;;1.89;100.00
54872;BME280;43914;57.680;11.982;2023-02-28T09:20:30;102254.02;;;1.92;100.00
54872;BME280;43914;57.680;11.982;2023-02-28T09:22:56;102258.81;;;1.94;100.00
54872;BME280;43914;57.680;11.982;2023-02-28T09:25:21;102266.27;;;1.94;100.00
54872;BME280;43914;57.680;11.982;2023-02-28T09:27:47;102265.46;;;1.89;100.00
54872;BME280;43914;57.680;11.982;2023-02-28T09:30:13;102257.84;;;1.87;100.00
54872;BME280;43914;57.680;11.982;2023-02-28T09:32:38;102260.35;;;1.89;100.00
54872;BME280;43914;57.680;11.982;2023-02-28T09:35:04;102266.59;;;1.91;100.00
54872;BME280;43914;57.680;11.982;2023-02-28T09:37:30;102263.79;;;1.94;100.00
54872;BME280;43914;57.680;11.982;2023-02-28T09:39:56;102263.36;;;1.98;100.00
54872;BME280;43914;57.680;11.982;2023-02-28T09:42:32;102265.88;;;1.97;100.00
54872;BME280;43914;57.680;11.982;2023-02-28T09:45:00;102259.61;;;1.98;100.00
54872;BME280;43914;57.680;11.982;2023-02-28T09:47:33;102252.95;;;2.04;100.00
54872;BME280;43914;57.680;11.982;2023-02-28T09:50:41;102255.42;;;2.10;100.00
54872;BME280;43914;57.680;11.982;2023-02-28T09:53:21;102248.88;;;2.19;100.00
54872;BME280;43914;57.680;11.982;2023-02-28T09:55:58;102245.80;;;2.24;100.00
54872;BME280;43914;57.680;11.982;2023-02-28T09:58:57;102250.41;;;2.29;100.00
54872;BME280;43914;57.680;11.982;2023-02-28T10:04:16;102248.77;;;2.48;100.00
54872;BME280;43914;57.680;11.982;2023-02-28T10:06:50;102248.23;;;2.59;100.00
54872;BME280;43914;57.680;11.982;2023-02-28T10:09:20;102252.54;;;2.70;100.00
54872;BME280;43914;57.680;11.982;2023-02-28T10:11:50;102248.30;;;2.78;100.00
54872;BME280;43914;57.680;11.982;2023-02-28T10:14:22;102256.84;;;2.86;100.00
54872;BME280;43914;57.680;11.982;2023-02-28T10:16:56;102254.30;;;2.87;100.00
54872;BME280;43914;57.680;11.982;2023-02-28T10:22:25;102264.21;;;2.93;100.00
54872;BME280;43914;57.680;11.982;2023-02-28T10:24:55;102267.80;;;2.95;100.00
54872;BME280;43914;57.680;11.982;2023-02-28T10:27:30;102264.05;;;2.96;100.00
54872;BME280;43914;57.680;11.982;2023-02-28T10:29:59;102263.52;;;2.93;100.00
54872;BME280;43914;57.680;11.982;2023-02-28T10:32:26;102262.80;;;2.93;100.00
54872;BME280;43914;57.680;11.982;2023-02-28T10:34:58;102261.27;;;2.92;100.00
54872;BME280;43914;57.680;11.982;2023-02-28T10:37:25;102261.27;;;2.89;100.00
54872;BME280;43914;57.680;11.982;2023-02-28T10:39:51;102268.77;;;2.94;100.00
54872;BME280;43914;57.680;11.982;2023-02-28T10:42:28;102269.21;;;3.01;100.00
54872;BME280;43914;57.680;11.982;2023-02-28T10:45:15;102268.74;;;3.06;100.00
54872;BME280;43914;57.680;11.982;2023-02-28T10:50:44;102272.87;;;3.25;100.00
54872;BME280;43914;57.680;11.982;2023-02-28T10:53:22;102277.27;;;3.36;100.00
54872;BME280;43914;57.680;11.982;2023-02-28T11:00:59;102265.09;;;3.55;100.00
54872;BME280;43914;57.680;11.982;2023-02-28T11:03:30;102264.37;;;3.60;100.00
54872;BME280;43914;57.680;11.982;2023-02-28T11:05:56;102265.65;;;3.71;100.00
54872;BME280;43914;57.680;11.982;2023-02-28T11:08:22;102270.41;;;3.77;100.00
54872;BME280;43914;57.680;11.982;2023-02-28T11:11:05;102272.33;;;3.83;100.00
54872;BME280;43914;57.680;11.982;2023-02-28T11:13:35;102268.44;;;3.90;100.00
54872;BME280;43914;57.680;11.982;2023-02-28T11:16:07;102269.70;;;3.98;100.00
54872;BME280;43914;57.680;11.982;2023-02-28T11:18:50;102266.71;;;4.06;100.00
54872;BME280;43914;57.680;11.982;2023-02-28T11:21:27;102263.89;;;4.14;100.00
54872;BME280;43914;57.680;11.982;2023-02-28T11:24:06;102255.48;;;4.20;100.00
54872;BME280;43914;57.680;11.982;2023-02-28T11:26:41;102247.79;;;4.26;100.00
54872;BME280;43914;57.680;11.982;2023-02-28T11:32:19;102239.45;;;4.44;100.00
54872;BME280;43914;57.680;11.982;2023-02-28T11:34:48;102237.66;;;4.52;100.00
54872;BME280;43914;57.680;11.982;2023-02-28T11:37:27;102236.43;;;4.59;100.00
54872;BME280;43914;57.680;11.982;2023-02-28T11:39:53;102226.22;;;4.69;100.00
54872;BME280;43914;57.680;11.982;2023-02-28T11:46:00;102223.95;;;4.93;100.00
54872;BME280;43914;57.680;11.982;2023-02-28T11:51:59;102217.33;;;5.14;100.00
54872;BME280;43914;57.680;11.982;2023-02-28T12:00:27;102211.77;;;5.37;100.00
54872;BME280;43914;57.680;11.982;2023-02-28T12:05:44;102210.69;;;5.37;100.00
54872;BME280;43914;57.680;11.982;2023-02-28T12:19:03;102197.69;;;5.49;100.00
54872;BME280;43914;57.680;11.982;2023-02-28T12:21:54;102195.34;;;5.59;100.00
54872;BME280;43914;57.680;11.982;2023-02-28T12:27:18;102188.24;;;5.88;100.00
54872;BME280;43914;57.680;11.982;2023-02-28T12:30:37;102183.19;;;6.00;100.00
54872;BME280;43914;57.680;11.982;2023-02-28T12:32:39;102179.90;;;6.13;100.00
54872;BME280;43914;57.680;11.982;2023-02-28T12:35:31;102175.45;;;6.25;99.57
54872;BME280;43914;57.680;11.982;2023-02-28T12:38:12;102180.30;;;6.38;99.17
54872;BME280;43914;57.680;11.982;2023-02-28T12:41:34;102159.33;;;6.47;98.43
54872;BME280;43914;57.680;11.982;2023-02-28T12:43:57;102159.41;;;6.64;97.94
54872;BME280;43914;57.680;11.982;2023-02-28T12:46:30;102153.89;;;6.73;96.84
54872;BME280;43914;57.680;11.982;2023-02-28T12:49:04;102152.55;;;6.85;96.70
54872;BME280;43914;57.680;11.982;2023-02-28T12:51:31;102150.17;;;6.95;96.04
54872;BME280;43914;57.680;11.982;2023-02-28T13:04:47;102137.30;;;7.45;92.54
54872;BME280;43914;57.680;11.982;2023-02-28T13:10:12;102127.65;;;7.77;90.69
54872;BME280;43914;57.680;11.982;2023-02-28T13:12:48;102126.73;;;7.90;90.30
54872;BME280;43914;57.680;11.982;2023-02-28T13:15:25;102131.13;;;8.08;89.14
54872;BME280;43914;57.680;11.982;2023-02-28T13:17:58;102129.61;;;8.29;87.75
54872;BME280;43914;57.680;11.982;2023-02-28T13:20:35;102128.16;;;8.48;86.53
54872;BME280;43914;57.680;11.982;2023-02-28T13:23:01;102128.02;;;8.62;85.17
54872;BME280;43914;57.680;11.982;2023-02-28T13:28:07;102117.70;;;8.92;83.11
54872;BME280;43914;57.680;11.982;2023-02-28T13:33:29;102115.86;;;9.20;79.97
54872;BME280;43914;57.680;11.982;2023-02-28T13:38:48;102116.80;;;9.24;76.48
54872;BME280;43914;57.680;11.982;2023-02-28T13:51:51;102113.20;;;8.45;77.20
54872;BME280;43914;57.680;11.982;2023-02-28T14:05:15;102111.95;;;7.65;76.98
54872;BME280;43914;57.680;11.982;2023-02-28T14:07:59;102104.95;;;7.48;77.28
54872;BME280;43914;57.680;11.982;2023-02-28T14:10:36;102111.92;;;7.40;77.56
54872;BME280;43914;57.680;11.982;2023-02-28T14:13:36;102111.30;;;7.34;78.43
54872;BME280;43914;57.680;11.982;2023-02-28T14:16:03;102105.23;;;7.30;77.94
54872;BME280;43914;57.680;11.982;2023-02-28T14:18:36;102102.05;;;7.23;77.81
54872;BME280;43914;57.680;11.982;2023-02-28T14:21:22;102103.14;;;7.18;78.34
54872;BME280;43914;57.680;11.982;2023-02-28T14:29:08;102105.19;;;7.04;79.31
54872;BME280;43914;57.680;11.982;2023-02-28T14:37:43;102095.86;;;6.77;80.50
54872;BME280;43914;57.680;11.982;2023-02-28T14:40:19;102089.65;;;6.68;80.95
54872;BME280;43914;57.680;11.982;2023-02-28T14:43:22;102086.35;;;6.62;81.51
54872;BME280;43914;57.680;11.982;2023-02-28T14:45:57;102088.20;;;6.54;82.20
54872;BME280;43914;57.680;11.982;2023-02-28T14:48:23;102082.36;;;6.50;83.09
54872;BME280;43914;57.680;11.982;2023-02-28T14:50:58;102084.96;;;6.46;83.83
54872;BME280;43914;57.680;11.982;2023-02-28T14:53:28;102086.72;;;6.44;84.25
54872;BME280;43914;57.680;11.982;2023-02-28T14:55:54;102091.96;;;6.43;84.71
54872;BME280;43914;57.680;11.982;2023-02-28T14:58:38;102095.56;;;6.41;85.02
54872;BME280;43914;57.680;11.982;2023-02-28T15:01:04;102090.94;;;6.38;85.40
54872;BME280;43914;57.680;11.982;2023-02-28T15:03:35;102088.23;;;6.36;85.89
54872;BME280;43914;57.680;11.982;2023-02-28T15:06:17;102086.45;;;6.34;86.24
54872;BME280;43914;57.680;11.982;2023-02-28T15:08:44;102087.55;;;6.29;86.53
54872;BME280;43914;57.680;11.982;2023-02-28T15:11:15;102079.79;;;6.24;86.89
54872;BME280;43914;57.680;11.982;2023-02-28T15:13:52;102082.70;;;6.18;87.08
54872;BME280;43914;57.680;11.982;2023-02-28T15:16:19;102086.98;;;6.16;87.58
54872;BME280;43914;57.680;11.982;2023-02-28T15:18:49;102086.92;;;6.12;87.54